Daglege Rapportar

Klikk her for oppdatering!


Detaljar i dag

20/3/19
Time         Wind Dir   Wind Spd  Wind Gust   Humidity       Temp  Raw Barom   Tot Rain Temp Out H Temp Out L  DailyRain   HourRain
                            mps        mps          %         C         mb         mm         C         C         mm         mm
0:00              360          0          1         92        0.4    1015.21     143.40        0.4        0.4       0.00       0.00
1:00              309          0          1         93        0.4    1014.57     143.40        0.4        0.3       0.00       0.00
2:00              334          0          1         93        0.7    1014.67     143.80        0.7        0.3       0.40       0.40
3:00              355          0          1         93        0.8    1014.54     144.80        0.8        0.3       1.40       1.40
4:00              351          0          2         93        0.9    1014.43     145.20        1.0        0.3       1.80       1.00
5:00              321          1          4         93        2.4    1014.23     145.80        2.4        0.3       2.40       0.80
6:00              328          0          1         93        1.5    1015.01     146.60        2.4        0.3       3.20       1.20
7:00              350          2          5         82        5.2    1015.14     149.20        5.2        0.3       5.80       3.00
8:00               11          3         11         82        4.9    1015.79     152.20        5.9        0.3       8.80       4.80

 


Detaljar i gr

19/3/19
Time         Wind Dir   Wind Spd  Wind Gust   Humidity       Temp  Raw Barom   Tot Rain Temp Out H Temp Out L  DailyRain   HourRain
                            mps        mps          %         C         mb         mm         C         C         mm         mm
0:00               22          0          4         51        2.9    1018.02     143.20        2.9        2.9       0.00       0.00
1:00                5          3          4         57        1.5    1018.56     143.20        2.9        1.0       0.00       0.00
2:00              360          0          4         61        0.9    1019.23     143.20        2.9        0.9       0.00       0.00
3:00              360          2          4         62        1.6    1019.94     143.20        2.9        0.7       0.00       0.00
4:00              342          3          4         64        1.6    1020.38     143.20        2.9        0.7       0.00       0.00
5:00              360          0          4         66        1.4    1020.69     143.20        2.9        0.7       0.00       0.00
6:00               10          1          2         73       -0.2    1021.06     143.20        2.9       -0.2       0.00       0.00
7:00              355          0          2         68        0.4    1021.73     143.20        2.9       -0.2       0.00       0.00
8:00               10          0          2         73       -0.3    1022.14     143.20        2.9       -0.4       0.00       0.00
9:00              167          1          1         52        3.6    1022.27     143.20        3.7       -0.4       0.00       0.00
10:00             158          1          3         59        3.4    1022.58     143.20        4.2       -0.4       0.00       0.00
11:00             168          2          3         60        3.8    1022.54     143.20        4.2       -0.4       0.00       0.00
12:00             150          2          3         57        4.2    1022.38     143.20        4.4       -0.4       0.00       0.00
13:00             172          1          3         57        4.4    1022.00     143.20        4.8       -0.4       0.00       0.00
14:00             157          1          3         54        4.9    1021.50     143.20        5.0       -0.4       0.00       0.00
15:00             138          0          3         51        5.7    1020.96     143.20        6.1       -0.4       0.00       0.00
16:00             153          0          2         53        4.7    1020.45     143.20        6.1       -0.4       0.00       0.00
17:00             140          0          1         51        4.1    1019.94     143.20        6.1       -0.4       0.00       0.00
18:00             148          0          1         60        4.0    1019.50     143.20        6.1       -0.4       0.00       0.00
19:00               5          1          6         62        3.6    1018.76     143.20        6.1       -0.4       0.00       0.00
20:00             159          0          6         61        3.8    1018.05     143.20        6.1       -0.4       0.00       0.00
21:00             324          1          1         72        3.2    1017.51     143.20        6.1       -0.4       0.00       0.00
22:00             336          0          1         84        1.8    1016.70     143.40        6.1       -0.4       0.20       0.20
23:00             336          0          1         90        0.7    1016.06     143.40        6.1       -0.4       0.20       0.20